createdAt,value
2019-02-28T00:06:18.327Z,7.03
2019-02-28T00:12:55.230Z,5.30
2019-02-28T00:19:24.550Z,7.53
2019-02-28T00:25:53.895Z,6.97
2019-02-28T00:31:49.993Z,6.60
2019-02-28T00:38:29.683Z,4.43
2019-02-28T00:44:54.242Z,6.70
2019-02-28T00:51:22.959Z,7.37
2019-02-28T00:58:02.254Z,5.47
2019-02-28T01:04:30.873Z,7.43
2019-02-28T01:10:57.934Z,6.13
2019-02-28T01:17:26.721Z,5.67
2019-02-28T01:24:07.754Z,4.03
2019-02-28T01:30:16.401Z,4.00
2019-02-28T01:36:33.132Z,5.10
2019-02-28T01:43:14.744Z,6.60
2019-02-28T01:49:45.914Z,6.00
2019-02-28T01:56:10.537Z,7.80
2019-02-28T02:02:42.536Z,7.33
2019-02-28T02:09:20.613Z,12.07
2019-02-28T02:15:52.258Z,8.30
2019-02-28T02:22:18.105Z,12.83
2019-02-28T02:29:00.937Z,5.00
2019-02-28T02:35:15.005Z,5.97
2019-02-28T02:41:42.845Z,5.73
2019-02-28T02:48:13.385Z,5.43
2019-02-28T02:54:58.493Z,5.80
2019-02-28T03:01:24.678Z,6.40
2019-02-28T03:07:59.522Z,5.87
2019-02-28T03:14:33.242Z,7.00
2019-02-28T03:21:00.182Z,7.90
2019-02-28T03:27:27.832Z,8.23
2019-02-28T03:36:58.379Z,8.03
2019-02-28T03:43:26.279Z,4.40
2019-02-28T03:50:12.535Z,9.67
2019-02-28T03:56:40.917Z,6.70
2019-02-28T04:03:08.224Z,5.00
2019-02-28T04:09:47.174Z,5.27
2019-02-28T04:16:13.992Z,7.67
2019-02-28T04:22:41.518Z,7.27
2019-02-28T04:29:08.599Z,5.37
2019-02-28T04:38:37.954Z,4.60
2019-02-28T04:45:19.273Z,12.20
2019-02-28T04:51:45.095Z,11.37
2019-02-28T04:58:10.912Z,13.40
2019-02-28T05:04:38.753Z,8.37
2019-02-28T05:11:18.723Z,17.40
2019-02-28T05:17:46.263Z,10.23
2019-02-28T05:24:14.396Z,8.87
2019-02-28T05:30:53.857Z,13.60
2019-02-28T05:41:12.185Z,14.20
2019-02-28T05:47:48.099Z,56.90
2019-02-28T05:54:17.103Z,14.83
2019-02-28T06:00:55.186Z,14.00
2019-02-28T06:07:21.017Z,16.70
2019-02-28T06:13:49.703Z,21.57
2019-02-28T06:20:18.062Z,15.50
2019-02-28T06:27:03.743Z,21.80
2019-02-28T06:32:57.859Z,17.07
2019-02-28T06:43:10.283Z,18.40
2019-02-28T06:49:40.914Z,19.67
2019-02-28T06:56:21.881Z,20.97
2019-02-28T07:02:45.576Z,23.57
2019-02-28T07:09:13.768Z,19.73
2019-02-28T07:15:39.583Z,21.83
2019-02-28T07:22:19.623Z,21.17
2019-02-28T07:28:44.352Z,23.83
2019-02-28T07:35:09.972Z,18.77
2019-02-28T07:44:40.820Z,24.60
2019-02-28T07:51:22.326Z,24.03
2019-02-28T07:57:48.346Z,22.40
2019-02-28T08:04:18.024Z,27.07
2019-02-28T08:10:47.938Z,24.90
2019-02-28T08:17:23.269Z,32.20
2019-02-28T08:23:48.835Z,28.73
2019-02-28T08:29:44.685Z,29.80
2019-02-28T08:36:11.607Z,34.73
2019-02-28T08:46:22.482Z,39.40
2019-02-28T08:52:48.419Z,49.50
2019-02-28T08:59:20.525Z,45.10
2019-02-28T09:05:45.866Z,47.50
2019-02-28T09:12:23.934Z,51.20
2019-02-28T09:18:54.363Z,47.60
2019-02-28T09:25:22.682Z,51.90
2019-02-28T09:31:14.931Z,46.37
2019-02-28T09:37:53.889Z,40.83
2019-02-28T09:48:01.984Z,48.30
2019-02-28T09:54:29.641Z,47.03
2019-02-28T10:00:57.536Z,41.93
2019-02-28T10:07:34.710Z,41.23
2019-02-28T10:14:05.580Z,38.77
2019-02-28T10:20:37.214Z,40.90
2019-02-28T10:27:05.109Z,40.87
2019-02-28T10:33:49.435Z,45.40
2019-02-28T10:40:17.714Z,38.67
2019-02-28T10:50:22.134Z,41.57
2019-02-28T10:56:49.759Z,42.00
2019-02-28T11:03:32.430Z,43.83
2019-02-28T11:10:05.853Z,44.83
2019-02-28T11:15:57.337Z,38.60
2019-02-28T11:22:24.964Z,40.70
2019-02-28T11:29:04.124Z,35.07
2019-02-28T11:35:37.013Z,34.63
2019-02-28T11:42:04.849Z,35.53
2019-02-28T11:52:20.690Z,36.63
2019-02-28T11:58:59.903Z,40.57
2019-02-28T12:05:27.542Z,30.77
2019-02-28T12:11:55.585Z,47.63
2019-02-28T12:18:20.402Z,40.20
2019-02-28T12:24:58.202Z,40.63
2019-02-28T12:31:26.177Z,36.73
2019-02-28T12:37:55.060Z,31.03
2019-02-28T12:44:31.719Z,35.03
2019-02-28T12:54:21.555Z,40.10
2019-02-28T13:00:47.613Z,35.37
2019-02-28T13:07:15.455Z,38.93
2019-02-28T13:13:40.266Z,29.80
2019-02-28T13:20:23.253Z,39.20
2019-02-28T13:26:49.073Z,33.53
2019-02-28T13:33:19.589Z,35.40
2019-02-28T13:40:04.272Z,37.50
2019-02-28T13:46:34.085Z,33.73
2019-02-28T13:56:46.892Z,31.10
2019-02-28T14:03:16.955Z,30.33
2019-02-28T14:09:43.580Z,41.00
2019-02-28T14:15:58.287Z,25.23
2019-02-28T14:22:24.098Z,29.50
2019-02-28T14:28:51.939Z,22.93
2019-02-28T14:35:35.470Z,32.97
2019-02-28T14:42:03.095Z,34.23
2019-02-28T14:48:29.364Z,32.00
2019-02-28T14:58:36.397Z,34.40
2019-02-28T15:05:06.348Z,28.10
2019-02-28T15:11:51.475Z,34.83
2019-02-28T15:17:42.023Z,21.77
2019-02-28T15:24:08.536Z,21.33
2019-02-28T15:30:48.525Z,20.97
2019-02-28T15:37:12.323Z,18.40
2019-02-28T15:43:36.120Z,20.33
2019-02-28T15:50:06.197Z,20.50
2019-02-28T16:00:31.387Z,16.50
2019-02-28T16:07:10.342Z,15.03
2019-02-28T16:13:35.929Z,16.40
2019-02-28T16:20:09.048Z,16.70
2019-02-28T16:26:48.001Z,16.63
2019-02-28T16:33:13.815Z,19.37
2019-02-28T16:39:41.454Z,25.67
2019-02-28T16:46:18.360Z,17.57
2019-02-28T16:52:44.214Z,14.30
2019-02-28T17:02:45.362Z,18.07
2019-02-28T17:09:26.614Z,20.50
2019-02-28T17:16:03.256Z,23.10
2019-02-28T17:22:44.028Z,25.33
2019-02-28T17:29:33.570Z,28.50
2019-02-28T17:36:05.115Z,23.30
2019-02-28T17:42:39.800Z,20.57
2019-02-28T17:49:53.358Z,32.63
2019-02-28T17:57:08.449Z,20.20
2019-02-28T18:04:24.106Z,19.83
2019-02-28T18:11:49.385Z,14.50
2019-02-28T18:19:02.689Z,27.57
2019-02-28T18:26:18.693Z,20.37
2019-02-28T18:32:57.954Z,21.60
2019-02-28T18:39:25.377Z,22.80
2019-02-28T18:45:50.168Z,25.63
2019-02-28T18:52:20.161Z,25.63
2019-02-28T18:59:02.375Z,21.90
2019-02-28T19:05:17.954Z,22.03
2019-02-28T19:11:44.631Z,24.63
2019-02-28T19:18:23.582Z,26.20
2019-02-28T19:24:49.759Z,24.43
2019-02-28T19:31:17.595Z,21.00
2019-02-28T19:37:45.439Z,21.73
2019-02-28T19:44:24.395Z,21.23
2019-02-28T19:50:13.850Z,20.17
2019-02-28T19:56:44.346Z,21.53
2019-02-28T20:06:50.156Z,12.13
2019-02-28T20:13:17.547Z,13.50
2019-02-28T20:19:54.479Z,19.40
2019-02-28T20:26:22.319Z,12.50
2019-02-28T20:32:47.899Z,15.23
2019-02-28T20:39:28.904Z,14.40
2019-02-28T20:45:57.613Z,15.33
2019-02-28T20:52:26.805Z,18.80
2019-02-28T21:42:07.330Z,16.67
2019-02-28T21:48:41.085Z,15.77
2019-02-28T21:55:18.812Z,12.70
2019-02-28T22:01:46.998Z,15.13
2019-02-28T22:08:20.754Z,14.00
2019-02-28T22:14:58.834Z,11.40
2019-02-28T22:21:24.660Z,8.20
2019-02-28T22:27:52.495Z,8.90
2019-02-28T22:34:37.334Z,13.57
2019-02-28T22:43:46.613Z,9.17
2019-02-28T22:49:27.314Z,9.03
2019-02-28T22:56:06.263Z,8.17
2019-02-28T23:02:32.083Z,9.03
2019-02-28T23:08:59.702Z,5.40
2019-02-28T23:15:26.367Z,4.90
2019-02-28T23:22:05.329Z,4.30
2019-02-28T23:28:47.150Z,7.80
2019-02-28T23:35:35.241Z,3.33
2019-02-28T23:45:25.364Z,8.67
2019-02-28T23:51:49.165Z,5.50
2019-02-28T23:58:15.836Z,6.60
